Saltburn-by-the-Sea, United Kingdom
Current Conditions -  °F | °C
As of 6:50 PM on Saturday 25 Oct 2014 (Local Time) from EGNV Reporting Station
Scattered Clouds Scattered Clouds  
Wind Chill: 55°   Ceiling: Unl
Heat Index: 55°   Visibility: 6mi
Dew Point: 45°   Wind: 23mph
Humidity: 67%   Direction: 220°SW
Pressure: 29.85"   Gusts: NA
Location:  54.58°N, 0.97°W
Report Text: EGNV 251750Z 22020KT 9999 FEW033 SCT042 13/07 Q1011
Loading
Personal Weather Stations






























Interactive Weather Map
Tropical Storm Tracking
New forecast layout! Learn more

10-Day Weather Forecast

Advertisements
Track Severe Weather on mobile